createdAt,value
2018-12-06T00:01:06.465Z,1006.3
2018-12-06T00:02:18.585Z,1006.2
2018-12-06T00:03:30.783Z,1006.2
2018-12-06T00:04:42.977Z,1006.2
2018-12-06T00:05:55.171Z,1006.1
2018-12-06T00:07:07.487Z,1006.1
2018-12-06T00:08:19.564Z,1006.1
2018-12-06T00:09:31.743Z,1006.1
2018-12-06T00:10:44.019Z,1006.1
2018-12-06T00:11:56.213Z,1006.1
2018-12-06T00:13:08.338Z,1006.1
2018-12-06T00:14:20.526Z,1006.1
2018-12-06T00:15:32.788Z,1006.2
2018-12-06T00:16:44.985Z,1006.2
2018-12-06T00:17:57.118Z,1006.1
2018-12-06T00:19:09.395Z,1006.2
2018-12-06T00:20:21.490Z,1006.2
2018-12-06T00:21:33.690Z,1006.1
2018-12-06T00:22:45.917Z,1006.1
2018-12-06T00:23:58.155Z,1006.2
2018-12-06T00:25:10.265Z,1006.2
2018-12-06T00:26:22.464Z,1006.2
2018-12-06T00:27:34.726Z,1006.2
2018-12-06T00:28:46.849Z,1006.2
2018-12-06T00:29:59.128Z,1006.2
2018-12-06T00:31:11.610Z,1006.2
2018-12-06T00:32:23.448Z,1006.2
2018-12-06T00:33:35.698Z,1006.2
2018-12-06T00:34:47.823Z,1006.3
2018-12-06T00:36:02.975Z,1006.2
2018-12-06T00:37:12.211Z,1006.2
2018-12-06T00:38:24.401Z,1006.2
2018-12-06T00:39:36.605Z,1006.2
2018-12-06T00:40:48.856Z,1006.2
2018-12-06T00:42:00.985Z,1006.2
2018-12-06T00:43:13.354Z,1006.2
2018-12-06T00:44:25.537Z,1006.2
2018-12-06T00:45:37.658Z,1006.2
2018-12-06T00:46:49.833Z,1006.2
2018-12-06T00:48:02.077Z,1006.2
2018-12-06T00:49:14.155Z,1006.2
2018-12-06T00:50:26.368Z,1006.2
2018-12-06T00:51:38.538Z,1006.2
2018-12-06T00:52:50.757Z,1006.2
2018-12-06T00:54:02.921Z,1006.2
2018-12-06T00:55:15.222Z,1006.2
2018-12-06T00:56:27.385Z,1006.3
2018-12-06T00:57:39.600Z,1006.2
2018-12-06T00:58:51.693Z,1006.2
2018-12-06T01:00:03.888Z,1006.3
2018-12-06T01:01:16.253Z,1006.3
2018-12-06T01:02:28.273Z,1006.2
2018-12-06T01:03:40.478Z,1006.3
2018-12-06T01:04:52.663Z,1006.3
2018-12-06T01:06:04.990Z,1006.2
2018-12-06T01:07:17.223Z,1006.2
2018-12-06T01:08:29.298Z,1006.2
2018-12-06T01:09:41.510Z,1006.3
2018-12-06T01:10:53.635Z,1006.2
2018-12-06T01:12:05.823Z,1006.2
2018-12-06T01:13:18.113Z,1006.2
2018-12-06T01:14:30.292Z,1006.2
2018-12-06T01:15:42.411Z,1006.2
2018-12-06T01:16:54.604Z,1006.2
2018-12-06T01:18:06.809Z,1006.1
2018-12-06T01:19:19.158Z,1006.1
2018-12-06T01:20:31.276Z,1006.1
2018-12-06T01:21:43.484Z,1006.1
2018-12-06T01:22:55.649Z,1006.2
2018-12-06T01:24:07.776Z,1006
2018-12-06T01:25:20.421Z,1006.1
2018-12-06T01:26:32.157Z,1006.1
2018-12-06T01:27:44.351Z,1006.1
2018-12-06T01:28:56.618Z,1006.1
2018-12-06T01:30:08.731Z,1006.1
2018-12-06T01:31:21.093Z,1006.2
2018-12-06T01:32:33.206Z,1006.1
2018-12-06T01:33:45.389Z,1006
2018-12-06T01:34:57.614Z,1006
2018-12-06T01:36:09.709Z,1006.1
2018-12-06T01:37:21.916Z,1006
2018-12-06T01:38:34.091Z,1006
2018-12-06T01:39:46.285Z,1006
2018-12-06T01:40:58.533Z,1006
2018-12-06T01:42:10.917Z,1006.1
2018-12-06T01:43:22.958Z,1006.1
2018-12-06T01:44:35.064Z,1006.1
2018-12-06T01:45:47.328Z,1006.1
2018-12-06T01:46:59.497Z,1006.1
2018-12-06T01:48:11.687Z,1006
2018-12-06T01:49:23.943Z,1006.1
2018-12-06T01:50:36.033Z,1006.1
2018-12-06T01:51:48.398Z,1006.1
2018-12-06T01:53:00.437Z,1006
2018-12-06T01:54:12.715Z,1006
2018-12-06T01:55:24.922Z,1006
2018-12-06T01:56:37.145Z,1006
2018-12-06T01:57:49.193Z,1006
2018-12-06T01:59:01.521Z,1006
2018-12-06T02:00:13.574Z,1006
2018-12-06T02:01:25.861Z,1006
2018-12-06T02:02:38.067Z,1006
2018-12-06T02:03:50.334Z,1006
2018-12-06T02:05:02.377Z,1005.9
2018-12-06T02:06:14.632Z,1005.9
2018-12-06T02:07:26.877Z,1005.9
2018-12-06T02:08:39.025Z,1005.9
2018-12-06T02:09:51.257Z,1005.9
2018-12-06T02:11:03.468Z,1005.8
2018-12-06T02:12:15.610Z,1005.8
2018-12-06T02:13:27.706Z,1006
2018-12-06T02:14:39.916Z,1006
2018-12-06T02:15:52.112Z,1005.9
2018-12-06T02:17:04.289Z,1005.8
2018-12-06T02:18:16.480Z,1005.8
2018-12-06T02:19:28.866Z,1005.8
2018-12-06T02:20:40.968Z,1005.8
2018-12-06T02:21:53.062Z,1005.8
2018-12-06T02:23:05.270Z,1005.9
2018-12-06T02:24:17.457Z,1005.7
2018-12-06T02:25:29.747Z,1005.8
2018-12-06T02:26:41.869Z,1005.8
2018-12-06T02:27:54.062Z,1005.7
2018-12-06T02:29:06.221Z,1005.9
2018-12-06T02:30:18.428Z,1005.8
2018-12-06T02:31:30.785Z,1005.8
2018-12-06T02:32:42.880Z,1005.8
2018-12-06T02:33:55.006Z,1005.7
2018-12-06T02:35:07.296Z,1005.8
2018-12-06T02:36:19.394Z,1005.8
2018-12-06T02:37:31.679Z,1005.8
2018-12-06T02:38:43.783Z,1005.7
2018-12-06T02:39:56.923Z,1005.7
2018-12-06T02:41:08.172Z,1005.7
2018-12-06T02:42:20.449Z,1005.7
2018-12-06T02:43:32.652Z,1005.7
2018-12-06T02:44:44.966Z,1005.7
2018-12-06T02:45:56.935Z,1005.7
2018-12-06T02:47:09.231Z,1005.7
2018-12-06T02:48:21.366Z,1005.8
2018-12-06T02:49:33.521Z,1005.6
2018-12-06T02:50:45.719Z,1005.6
2018-12-06T02:51:58.010Z,1005.7
2018-12-06T02:53:10.179Z,1005.7
2018-12-06T02:54:23.643Z,1005.5
2018-12-06T02:55:34.593Z,1005.6
2018-12-06T02:56:46.784Z,1005.6
2018-12-06T02:57:58.953Z,1005.6
2018-12-06T02:59:11.152Z,1005.5
2018-12-06T03:00:23.271Z,1005.6
2018-12-06T03:01:35.597Z,1005.6
2018-12-06T03:02:47.725Z,1005.5
2018-12-06T03:03:59.855Z,1005.6
2018-12-06T03:05:12.043Z,1005.6
2018-12-06T03:06:24.234Z,1005.6
2018-12-06T03:07:36.521Z,1005.6
2018-12-06T03:08:48.724Z,1005.5
2018-12-06T03:10:00.822Z,1005.6
2018-12-06T03:11:13.080Z,1005.6
2018-12-06T03:12:25.229Z,1005.6
2018-12-06T03:13:37.490Z,1005.7
2018-12-06T03:14:49.775Z,1005.6
2018-12-06T03:16:01.896Z,1005.6
2018-12-06T03:17:13.979Z,1005.6
2018-12-06T03:18:26.269Z,1005.6
2018-12-06T03:19:38.455Z,1005.6
2018-12-06T03:20:50.754Z,1005.6
2018-12-06T03:22:02.863Z,1005.6
2018-12-06T03:23:15.044Z,1005.6
2018-12-06T03:24:27.214Z,1005.5
2018-12-06T03:25:39.417Z,1005.6
2018-12-06T03:26:51.617Z,1005.5
2018-12-06T03:28:03.719Z,1005.6
2018-12-06T03:29:15.918Z,1005.5
2018-12-06T03:30:28.125Z,1005.4
2018-12-06T03:31:40.415Z,1005.5
2018-12-06T03:32:52.521Z,1005.5
2018-12-06T03:34:04.698Z,1005.6
2018-12-06T03:35:16.964Z,1005.5
2018-12-06T03:36:29.082Z,1005.5
2018-12-06T03:37:41.375Z,1005.6
2018-12-06T03:38:53.475Z,1005.6
2018-12-06T03:40:05.762Z,1005.5
2018-12-06T03:41:17.893Z,1005.6
2018-12-06T03:42:30.156Z,1005.5
2018-12-06T03:43:42.334Z,1005.6
2018-12-06T03:44:54.438Z,1005.6
2018-12-06T03:46:06.708Z,1005.7
2018-12-06T03:47:18.821Z,1005.7
2018-12-06T03:48:31.032Z,1005.6
2018-12-06T03:49:43.295Z,1005.7
2018-12-06T03:50:55.399Z,1005.6
2018-12-06T03:52:07.750Z,1005.6
2018-12-06T03:53:19.796Z,1005.6
2018-12-06T03:54:32.133Z,1005.6
2018-12-06T03:55:44.276Z,1005.6
2018-12-06T03:56:56.493Z,1005.7
2018-12-06T03:58:08.571Z,1005.7
2018-12-06T03:59:20.836Z,1005.7
2018-12-06T04:00:32.963Z,1005.8
2018-12-06T04:01:45.154Z,1005.7
2018-12-06T04:02:57.380Z,1005.7
2018-12-06T04:04:09.537Z,1005.7
2018-12-06T04:05:21.751Z,1005.7
2018-12-06T04:06:34.187Z,1005.6
2018-12-06T04:07:46.249Z,1005.6
2018-12-06T04:08:58.313Z,1005.6
2018-12-06T04:10:10.588Z,1005.7
2018-12-06T04:11:22.730Z,1005.6
2018-12-06T04:12:34.929Z,1005.7
2018-12-06T04:13:47.258Z,1005.7
2018-12-06T04:14:59.376Z,1005.6
2018-12-06T04:16:11.545Z,1005.7
2018-12-06T04:17:23.687Z,1005.6
2018-12-06T04:18:35.865Z,1005.6
2018-12-06T04:19:48.168Z,1005.7
2018-12-06T04:21:00.376Z,1005.7
2018-12-06T04:22:12.444Z,1005.7
2018-12-06T04:23:24.736Z,1005.7
2018-12-06T04:24:36.829Z,1005.6
2018-12-06T04:25:49.126Z,1005.6
2018-12-06T04:27:01.311Z,1005.6
2018-12-06T04:28:13.512Z,1005.6
2018-12-06T04:29:25.677Z,1005.7
2018-12-06T04:30:37.821Z,1005.6
2018-12-06T04:31:50.538Z,1005.6
2018-12-06T04:33:02.215Z,1005.7
2018-12-06T04:34:14.394Z,1005.7
2018-12-06T04:35:26.576Z,1005.8
2018-12-06T04:36:38.791Z,1005.8
2018-12-06T04:37:53.221Z,1005.6
2018-12-06T04:39:03.241Z,1005.8
2018-12-06T04:40:15.435Z,1005.8
2018-12-06T04:41:27.542Z,1005.8
2018-12-06T04:42:39.828Z,1005.9
2018-12-06T04:43:52.029Z,1005.9
2018-12-06T04:45:04.194Z,1005.9
2018-12-06T04:46:16.540Z,1005.9
2018-12-06T04:47:29.316Z,1005.9
2018-12-06T04:48:40.769Z,1005.9
2018-12-06T04:49:52.901Z,1005.9
2018-12-06T04:51:05.094Z,1005.9
2018-12-06T04:52:17.290Z,1005.8
2018-12-06T04:53:29.558Z,1005.8
2018-12-06T04:54:41.871Z,1005.9
2018-12-06T04:55:54.044Z,1005.9
2018-12-06T04:57:06.149Z,1005.9
2018-12-06T04:58:18.350Z,1005.9
2018-12-06T04:59:30.456Z,1005.9
2018-12-06T05:00:42.716Z,1006
2018-12-06T05:01:54.837Z,1006
2018-12-06T05:03:07.127Z,1006
2018-12-06T05:04:19.320Z,1006
2018-12-06T05:05:31.421Z,1006
2018-12-06T05:06:43.611Z,1006
2018-12-06T05:07:55.894Z,1006
2018-12-06T05:09:08.168Z,1006
2018-12-06T05:10:20.202Z,1006
2018-12-06T05:11:32.496Z,1006
2018-12-06T05:12:44.604Z,1006
2018-12-06T05:13:56.961Z,1006
2018-12-06T05:15:09.058Z,1006
2018-12-06T05:16:21.252Z,1006.1
2018-12-06T05:17:33.364Z,1006.1
2018-12-06T05:18:45.649Z,1006.1
2018-12-06T05:19:57.838Z,1006.2
2018-12-06T05:21:10.033Z,1006.1
2018-12-06T05:22:22.155Z,1006.1
2018-12-06T05:23:34.421Z,1006.1
2018-12-06T05:24:46.522Z,1006.1
2018-12-06T05:25:58.821Z,1006.1
2018-12-06T05:27:10.910Z,1006.2
2018-12-06T05:28:23.197Z,1006.2
2018-12-06T05:29:35.400Z,1006.2
2018-12-06T05:30:47.570Z,1006.2
2018-12-06T05:31:59.780Z,1006.2
2018-12-06T05:33:12.025Z,1006.2
2018-12-06T05:34:24.156Z,1006.2
2018-12-06T05:35:36.274Z,1006.1
2018-12-06T05:36:48.467Z,1006.2
2018-12-06T05:38:00.718Z,1006.2
2018-12-06T05:39:12.875Z,1006.3
2018-12-06T05:40:25.119Z,1006.2
2018-12-06T05:41:37.312Z,1006.2
2018-12-06T05:42:50.156Z,1006.2
2018-12-06T05:44:01.716Z,1006.2
2018-12-06T05:45:13.916Z,1006.2
2018-12-06T05:46:26.013Z,1006.3
2018-12-06T05:47:38.390Z,1006.3
2018-12-06T05:48:50.401Z,1006.3
2018-12-06T05:50:02.751Z,1006.3
2018-12-06T05:51:14.860Z,1006.3
2018-12-06T05:52:27.064Z,1006.3
2018-12-06T05:53:39.169Z,1006.3
2018-12-06T05:54:51.463Z,1006.4
2018-12-06T05:56:03.697Z,1006.4
2018-12-06T05:57:15.827Z,1006.4
2018-12-06T05:58:27.947Z,1006.3
2018-12-06T05:59:40.235Z,1006.4
2018-12-06T06:00:52.397Z,1006.3
2018-12-06T06:02:04.674Z,1006.4
2018-12-06T06:03:16.801Z,1006.4
2018-12-06T06:04:28.920Z,1006.5
2018-12-06T06:05:41.203Z,1006.6
2018-12-06T06:06:53.305Z,1006.6
2018-12-06T06:08:05.597Z,1006.6
2018-12-06T06:09:17.788Z,1006.6
2018-12-06T06:10:29.986Z,1006.6
2018-12-06T06:11:42.242Z,1006.6
2018-12-06T06:12:54.263Z,1006.6
2018-12-06T06:14:06.547Z,1006.6
2018-12-06T06:15:18.663Z,1006.6
2018-12-06T06:16:30.889Z,1006.6
2018-12-06T06:17:43.039Z,1006.6
2018-12-06T06:18:55.351Z,1006.6
2018-12-06T06:20:07.539Z,1006.6
2018-12-06T06:21:19.625Z,1006.5
2018-12-06T06:22:31.901Z,1006.5
2018-12-06T06:23:44.011Z,1006.5
2018-12-06T06:24:56.352Z,1006.6
2018-12-06T06:26:08.408Z,1006.6
2018-12-06T06:27:20.678Z,1006.6
2018-12-06T06:28:32.858Z,1006.7
2018-12-06T06:29:44.978Z,1006.6
2018-12-06T06:30:57.173Z,1006.5
2018-12-06T06:32:09.464Z,1006.5
2018-12-06T06:33:21.583Z,1006.5
2018-12-06T06:34:33.763Z,1006.5
2018-12-06T06:35:46.049Z,1006.5
2018-12-06T06:36:58.153Z,1006.6
2018-12-06T06:38:10.339Z,1006.6
2018-12-06T06:39:22.547Z,1006.6
2018-12-06T06:40:34.720Z,1006.7
2018-12-06T06:41:46.992Z,1006.7
2018-12-06T06:42:59.108Z,1006.8
2018-12-06T06:44:11.465Z,1006.8
2018-12-06T06:45:23.602Z,1006.9
2018-12-06T06:46:35.705Z,1006.9
2018-12-06T06:47:50.364Z,1006.9
2018-12-06T06:49:00.079Z,1006.9
2018-12-06T06:50:12.282Z,1007
2018-12-06T06:51:24.473Z,1006.9
2018-12-06T06:52:39.913Z,1007.1
2018-12-06T06:53:48.864Z,1007
2018-12-06T06:55:01.220Z,1007.1
2018-12-06T06:56:13.412Z,1007.1
2018-12-06T06:57:25.439Z,1007.2
2018-12-06T06:58:37.633Z,1007.2
2018-12-06T06:59:49.833Z,1007.2
2018-12-06T07:01:02.121Z,1007.2
2018-12-06T07:02:14.209Z,1007.2
2018-12-06T07:03:26.407Z,1007.2
2018-12-06T07:04:38.785Z,1007.3
2018-12-06T07:05:50.874Z,1007.3
2018-12-06T07:07:02.984Z,1007.3
2018-12-06T07:08:15.357Z,1007.3
2018-12-06T07:09:27.407Z,1007.4
2018-12-06T07:10:39.579Z,1007.3
2018-12-06T07:11:51.837Z,1007.4
2018-12-06T07:13:04.021Z,1007.3
2018-12-06T07:14:16.241Z,1007.4
2018-12-06T07:15:28.345Z,1007.4
2018-12-06T07:16:40.652Z,1007.5
2018-12-06T07:17:52.861Z,1007.5
2018-12-06T07:19:05.103Z,1007.6
2018-12-06T07:20:17.289Z,1007.5
2018-12-06T07:21:29.314Z,1007.5
2018-12-06T07:22:41.514Z,1007.5
2018-12-06T07:23:53.793Z,1007.5
2018-12-06T07:25:05.895Z,1007.5
2018-12-06T07:26:18.229Z,1007.4
2018-12-06T07:27:30.303Z,1007.5
2018-12-06T07:28:42.470Z,1007.6
2018-12-06T07:29:54.754Z,1007.6
2018-12-06T07:31:06.954Z,1007.7
2018-12-06T07:32:19.220Z,1007.7
2018-12-06T07:33:31.321Z,1007.6
2018-12-06T07:34:43.518Z,1007.6
2018-12-06T07:35:55.746Z,1007.6
2018-12-06T07:37:07.903Z,1007.6
2018-12-06T07:38:20.096Z,1007.7
2018-12-06T07:39:32.309Z,1007.7
2018-12-06T07:40:44.484Z,1007.7
2018-12-06T07:41:56.786Z,1007.7
2018-12-06T07:43:08.796Z,1007.7
2018-12-06T07:44:21.701Z,1007.7
2018-12-06T07:45:33.277Z,1007.7
2018-12-06T07:46:47.205Z,1007.7
2018-12-06T07:47:57.749Z,1007.7
2018-12-06T07:49:09.773Z,1007.8
2018-12-06T07:50:22.054Z,1007.7
2018-12-06T07:51:34.269Z,1007.8
2018-12-06T07:52:46.343Z,1007.8
2018-12-06T07:53:58.616Z,1007.8
2018-12-06T07:55:10.806Z,1007.8
2018-12-06T07:56:23.028Z,1007.9
2018-12-06T07:57:35.197Z,1007.9
2018-12-06T07:58:47.388Z,1007.9
2018-12-06T07:59:59.592Z,1007.9
2018-12-06T08:01:11.719Z,1007.9
2018-12-06T08:02:24.082Z,1007.9
2018-12-06T08:03:36.206Z,1007.9
2018-12-06T08:04:48.288Z,1007.9
2018-12-06T08:06:00.481Z,1007.9
2018-12-06T08:07:12.677Z,1007.9
2018-12-06T08:08:25.034Z,1007.8
2018-12-06T08:09:37.132Z,1007.9
2018-12-06T08:10:49.256Z,1008
2018-12-06T08:12:01.612Z,1008
2018-12-06T08:13:13.720Z,1008
2018-12-06T08:14:26.044Z,1008
2018-12-06T08:15:38.108Z,1007.9
2018-12-06T08:16:50.311Z,1007.9
2018-12-06T08:18:02.421Z,1007.9
2018-12-06T08:19:14.620Z,1007.9
2018-12-06T08:20:26.978Z,1007.9
2018-12-06T08:21:39.081Z,1007.9
2018-12-06T08:22:52.882Z,1007.9
2018-12-06T08:24:03.466Z,1007.8
2018-12-06T08:25:15.700Z,1007.9
2018-12-06T08:26:27.864Z,1007.9
2018-12-06T08:27:40.073Z,1007.9
2018-12-06T08:28:52.250Z,1007.9
2018-12-06T08:30:04.372Z,1007.9
2018-12-06T08:31:16.678Z,1007.9
2018-12-06T08:33:40.961Z,1008
2018-12-06T08:34:53.144Z,1007.9
2018-12-06T08:36:05.457Z,1008
2018-12-06T08:37:17.616Z,1007.9
2018-12-06T08:38:29.944Z,1007.9
2018-12-06T08:39:41.936Z,1007.9
2018-12-06T08:40:54.246Z,1007.8
2018-12-06T08:42:06.413Z,1007.9
2018-12-06T08:43:18.600Z,1008
2018-12-06T08:44:30.872Z,1007.9
2018-12-06T08:45:43.091Z,1008
2018-12-06T08:46:55.213Z,1007.9
2018-12-06T08:48:07.313Z,1007.9
2018-12-06T08:49:19.489Z,1007.9
2018-12-06T08:50:31.692Z,1007.9
2018-12-06T08:51:43.953Z,1008
2018-12-06T08:52:56.080Z,1008
2018-12-06T08:54:08.343Z,1008
2018-12-06T08:55:20.466Z,1008
2018-12-06T08:56:32.835Z,1008
2018-12-06T08:57:44.924Z,1008.1
2018-12-06T08:58:57.246Z,1008.1
2018-12-06T09:00:09.262Z,1008.1
2018-12-06T09:01:21.467Z,1008.1
2018-12-06T09:02:33.645Z,1008.1
2018-12-06T09:03:45.845Z,1008.1
2018-12-06T09:04:58.037Z,1008
2018-12-06T09:06:10.300Z,1008.1
2018-12-06T09:07:22.499Z,1008.1
2018-12-06T09:08:34.710Z,1008.1
2018-12-06T09:09:46.821Z,1008.2
2018-12-06T09:10:59.008Z,1008.2
2018-12-06T09:12:11.295Z,1008.2
2018-12-06T09:13:23.489Z,1008.2
2018-12-06T09:14:35.691Z,1008.2
2018-12-06T09:15:47.798Z,1008.2
2018-12-06T09:17:00.061Z,1008.2
2018-12-06T09:18:12.251Z,1008.2
2018-12-06T09:19:24.380Z,1008.2
2018-12-06T09:20:36.771Z,1008.2
2018-12-06T09:21:48.846Z,1008.2
2018-12-06T09:23:01.037Z,1008.2
2018-12-06T09:24:13.161Z,1008.2
2018-12-06T09:25:25.440Z,1008.2
2018-12-06T09:26:37.540Z,1008.2
2018-12-06T09:27:49.748Z,1008.1
2018-12-06T09:29:01.945Z,1008.1
2018-12-06T09:30:14.221Z,1008.1
2018-12-06T09:31:26.402Z,1008.1
2018-12-06T09:32:38.624Z,1008.1
2018-12-06T09:33:50.784Z,1008
2018-12-06T09:35:02.923Z,1008
2018-12-06T09:36:15.293Z,1008
2018-12-06T09:37:27.379Z,1007.9
2018-12-06T09:38:39.615Z,1007.9
2018-12-06T09:39:51.761Z,1008
2018-12-06T09:41:03.901Z,1007.9
2018-12-06T09:42:16.186Z,1007.9
2018-12-06T09:43:28.441Z,1007.9
2018-12-06T09:44:40.691Z,1008
2018-12-06T09:45:52.874Z,1008
2018-12-06T09:47:04.870Z,1008.1
2018-12-06T09:48:17.176Z,1008.2
2018-12-06T09:49:29.329Z,1008.2
2018-12-06T09:50:41.654Z,1008.2
2018-12-06T09:51:53.719Z,1008.3
2018-12-06T09:53:05.922Z,1008.3
2018-12-06T09:54:18.111Z,1008.2
2018-12-06T09:55:30.308Z,1008.3
2018-12-06T09:56:42.610Z,1008.3
2018-12-06T09:57:54.625Z,1008.3
2018-12-06T09:59:06.897Z,1008.4
2018-12-06T10:00:19.137Z,1008.4
2018-12-06T10:01:31.202Z,1008.4
2018-12-06T10:02:43.410Z,1008.4
2018-12-06T10:03:55.667Z,1008.4
2018-12-06T10:05:07.812Z,1008.5
2018-12-06T10:06:19.995Z,1008.5
2018-12-06T10:07:32.266Z,1008.5
2018-12-06T10:08:44.484Z,1008.5
2018-12-06T10:09:56.657Z,1008.5
2018-12-06T10:11:08.768Z,1008.5
2018-12-06T10:12:20.965Z,1008.5
2018-12-06T10:13:33.398Z,1008.6
2018-12-06T10:14:45.453Z,1008.6
2018-12-06T10:15:57.552Z,1008.6
2018-12-06T10:17:09.839Z,1008.6
2018-12-06T10:18:22.010Z,1008.6
2018-12-06T10:19:34.240Z,1008.7
2018-12-06T10:20:46.492Z,1008.6
2018-12-06T10:21:58.521Z,1008.6
2018-12-06T10:23:10.858Z,1008.6
2018-12-06T10:24:23.014Z,1008.6
2018-12-06T10:25:35.114Z,1008.6
2018-12-06T10:26:47.401Z,1008.5
2018-12-06T10:27:59.502Z,1008.5
2018-12-06T10:29:11.768Z,1008.5
2018-12-06T10:30:24.031Z,1008.6
2018-12-06T10:31:36.100Z,1008.6
2018-12-06T10:32:48.459Z,1008.6
2018-12-06T10:34:00.545Z,1008.6
2018-12-06T10:35:12.667Z,1008.6
2018-12-06T10:36:24.870Z,1008.7
2018-12-06T10:37:37.354Z,1008.7
2018-12-06T10:38:49.339Z,1008.6
2018-12-06T10:40:01.532Z,1008.6
2018-12-06T10:41:13.647Z,1008.6
2018-12-06T10:42:25.866Z,1008.7
2018-12-06T10:43:38.044Z,1008.6
2018-12-06T10:44:50.312Z,1008.7
2018-12-06T10:46:02.437Z,1008.7
2018-12-06T10:47:14.699Z,1008.7
2018-12-06T10:48:26.866Z,1008.7
2018-12-06T10:49:39.016Z,1008.7
2018-12-06T10:50:51.294Z,1008.7
2018-12-06T10:52:03.418Z,1008.7
2018-12-06T10:53:15.611Z,1008.7
2018-12-06T10:54:27.892Z,1008.6
2018-12-06T10:55:39.999Z,1008.7
2018-12-06T10:56:52.360Z,1008.7
2018-12-06T10:58:04.409Z,1008.6
2018-12-06T10:59:16.570Z,1008.6
2018-12-06T11:00:31.797Z,1008.7
2018-12-06T11:01:40.966Z,1008.7
2018-12-06T11:02:53.234Z,1008.7
2018-12-06T11:04:05.449Z,1008.7
2018-12-06T11:05:19.794Z,1008.6
2018-12-06T11:06:29.827Z,1008.5
2018-12-06T11:07:41.968Z,1008.6
2018-12-06T11:08:54.230Z,1008.6
2018-12-06T11:10:06.506Z,1008.7
2018-12-06T11:11:18.597Z,1008.6
2018-12-06T11:12:30.808Z,1008.6
2018-12-06T11:13:42.924Z,1008.6
2018-12-06T11:14:55.242Z,1008.5
2018-12-06T11:16:08.139Z,1008.5
2018-12-06T11:17:19.504Z,1008.5
2018-12-06T11:18:31.726Z,1008.5
2018-12-06T11:19:44.026Z,1008.5
2018-12-06T11:20:56.180Z,1008.5
2018-12-06T11:22:08.447Z,1008.5
2018-12-06T11:23:20.481Z,1008.5
2018-12-06T11:24:32.836Z,1008.5
2018-12-06T11:25:44.874Z,1008.5
2018-12-06T11:26:57.147Z,1008.5
2018-12-06T11:28:09.256Z,1008.6
2018-12-06T11:29:21.470Z,1008.5
2018-12-06T11:30:33.660Z,1008.5
2018-12-06T11:31:45.992Z,1008.6
2018-12-06T11:32:58.167Z,1008.6
2018-12-06T11:34:10.311Z,1008.5
2018-12-06T11:35:22.428Z,1008.5
2018-12-06T11:36:34.811Z,1008.5
2018-12-06T11:37:46.910Z,1008.6
2018-12-06T11:38:59.121Z,1008.5
2018-12-06T11:40:11.213Z,1008.5
2018-12-06T11:41:23.493Z,1008.6
2018-12-06T11:42:35.682Z,1008.6
2018-12-06T11:43:47.937Z,1008.5
2018-12-06T11:45:00.162Z,1008.6
2018-12-06T11:46:12.282Z,1008.6
2018-12-06T11:47:24.462Z,1008.6
2018-12-06T11:48:38.027Z,1008.7
2018-12-06T11:49:48.853Z,1008.6
2018-12-06T11:51:01.043Z,1008.7
2018-12-06T11:52:13.168Z,1008.7
2018-12-06T11:53:25.565Z,1008.7
2018-12-06T11:54:37.640Z,1008.8
2018-12-06T11:55:49.805Z,1008.8
2018-12-06T11:57:02.107Z,1008.7
2018-12-06T11:58:14.223Z,1008.8
2018-12-06T11:59:26.422Z,1008.6
2018-12-06T12:00:38.627Z,1008.7
2018-12-06T12:01:50.806Z,1008.7
2018-12-06T12:03:03.018Z,1008.7
2018-12-06T12:04:15.188Z,1008.7
2018-12-06T12:05:27.322Z,1008.7
2018-12-06T12:06:39.520Z,1008.7
2018-12-06T12:07:51.807Z,1008.7
2018-12-06T12:09:04.189Z,1008.7
2018-12-06T12:10:16.189Z,1008.7
2018-12-06T12:11:28.366Z,1008.7
2018-12-06T12:12:40.636Z,1008.7
2018-12-06T12:13:52.791Z,1008.7
2018-12-06T12:15:05.007Z,1008.8
2018-12-06T12:16:17.148Z,1008.8
2018-12-06T12:17:29.355Z,1008.8
2018-12-06T12:18:41.531Z,1008.8
2018-12-06T12:19:53.820Z,1008.8
2018-12-06T12:21:06.024Z,1008.7
2018-12-06T12:22:18.148Z,1008.8
2018-12-06T12:23:30.240Z,1008.7
2018-12-06T12:24:42.586Z,1008.7
2018-12-06T12:25:54.652Z,1008.7
2018-12-06T12:27:06.900Z,1008.8
2018-12-06T12:28:19.034Z,1008.7
2018-12-06T12:29:31.455Z,1008.8
2018-12-06T12:30:43.417Z,1008.8
2018-12-06T12:31:55.823Z,1008.7
2018-12-06T12:33:07.891Z,1008.7
2018-12-06T12:34:20.000Z,1008.7
2018-12-06T12:35:32.195Z,1008.8
2018-12-06T12:36:44.552Z,1008.8
2018-12-06T12:37:56.676Z,1008.8
2018-12-06T12:39:08.877Z,1008.7
2018-12-06T12:40:21.092Z,1008.7
2018-12-06T12:41:33.336Z,1008.7
2018-12-06T12:42:45.438Z,1008.7
2018-12-06T12:43:57.671Z,1008.7
2018-12-06T12:45:09.924Z,1008.8
2018-12-06T12:46:22.050Z,1008.7
2018-12-06T12:47:34.222Z,1008.7
2018-12-06T12:48:50.018Z,1008.8
2018-12-06T12:49:58.611Z,1008.8
2018-12-06T12:51:10.845Z,1008.8
2018-12-06T12:52:23.021Z,1008.9
2018-12-06T12:53:35.121Z,1008.9
2018-12-06T12:54:47.410Z,1008.9
2018-12-06T12:55:59.629Z,1008.8
2018-12-06T12:57:11.840Z,1008.8
2018-12-06T12:58:23.922Z,1008.8
2018-12-06T12:59:36.187Z,1008.8
2018-12-06T13:00:48.317Z,1008.8
2018-12-06T13:02:00.493Z,1008.8
2018-12-06T13:03:12.960Z,1008.8
2018-12-06T13:04:24.885Z,1008.8
2018-12-06T13:05:37.154Z,1008.8
2018-12-06T13:06:49.272Z,1008.8
2018-12-06T13:08:01.551Z,1008.8
2018-12-06T13:09:13.785Z,1008.7
2018-12-06T13:10:25.948Z,1008.7
2018-12-06T13:11:38.152Z,1008.7
2018-12-06T13:12:50.429Z,1008.7
2018-12-06T13:14:02.469Z,1008.7
2018-12-06T13:15:14.797Z,1008.7
2018-12-06T13:16:26.910Z,1008.7
2018-12-06T13:17:39.114Z,1008.7
2018-12-06T13:18:51.312Z,1008.6
2018-12-06T13:20:03.419Z,1008.6
2018-12-06T13:21:15.737Z,1008.6
2018-12-06T13:22:27.815Z,1008.6
2018-12-06T13:23:40.038Z,1008.6
2018-12-06T13:24:52.298Z,1008.6
2018-12-06T13:26:04.475Z,1008.6
2018-12-06T13:27:20.141Z,1008.6
2018-12-06T13:28:29.246Z,1008.6
2018-12-06T13:29:40.988Z,1008.5
2018-12-06T13:30:53.252Z,1008.6
2018-12-06T13:32:05.447Z,1008.6
2018-12-06T13:33:17.756Z,1008.5
2018-12-06T13:34:29.864Z,1008.6
2018-12-06T13:35:41.980Z,1008.5
2018-12-06T13:36:54.236Z,1008.6
2018-12-06T13:38:06.350Z,1008.6
2018-12-06T13:39:18.549Z,1008.5
2018-12-06T13:40:30.750Z,1008.6
2018-12-06T13:41:43.007Z,1008.6
2018-12-06T13:42:55.232Z,1008.6
2018-12-06T13:44:07.426Z,1008.5
2018-12-06T13:45:19.623Z,1008.5
2018-12-06T13:46:31.785Z,1008.5
2018-12-06T13:47:43.914Z,1008.5
2018-12-06T13:48:56.269Z,1008.5
2018-12-06T13:50:08.321Z,1008.5
2018-12-06T13:51:20.588Z,1008.5
2018-12-06T13:52:32.692Z,1008.6
2018-12-06T13:53:45.057Z,1008.5
2018-12-06T13:54:57.088Z,1008.6
2018-12-06T13:56:09.409Z,1008.6
2018-12-06T13:57:21.583Z,1008.6
2018-12-06T13:58:33.782Z,1008.6
2018-12-06T13:59:45.865Z,1008.6
2018-12-06T14:00:58.227Z,1008.6
2018-12-06T14:02:10.332Z,1008.6
2018-12-06T14:03:22.622Z,1008.7
2018-12-06T14:04:34.651Z,1008.7
2018-12-06T14:05:46.915Z,1008.6
2018-12-06T14:06:59.128Z,1008.5
2018-12-06T14:08:11.239Z,1008.6
2018-12-06T14:09:23.621Z,1008.5
2018-12-06T14:10:35.622Z,1008.5
2018-12-06T14:11:47.819Z,1008.6
2018-12-06T14:13:00.025Z,1008.6
2018-12-06T14:14:12.209Z,1008.7
2018-12-06T14:15:24.583Z,1008.7
2018-12-06T14:16:36.675Z,1008.7
2018-12-06T14:17:48.866Z,1008.7
2018-12-06T14:19:00.993Z,1008.7
2018-12-06T14:20:13.180Z,1008.8
2018-12-06T14:21:25.549Z,1008.8
2018-12-06T14:22:37.671Z,1008.8
2018-12-06T14:23:49.841Z,1008.8
2018-12-06T14:25:01.973Z,1008.8
2018-12-06T14:26:14.160Z,1008.8
2018-12-06T14:27:26.364Z,1008.8
2018-12-06T14:28:38.677Z,1008.7
2018-12-06T14:29:50.742Z,1008.8
2018-12-06T14:31:03.019Z,1008.8
2018-12-06T14:32:15.140Z,1008.8
2018-12-06T14:33:27.457Z,1008.7
2018-12-06T14:34:39.617Z,1008.7
2018-12-06T14:35:51.825Z,1008.7
2018-12-06T14:37:03.925Z,1008.7
2018-12-06T14:38:16.223Z,1008.7
2018-12-06T14:39:28.402Z,1008.7
2018-12-06T14:40:40.574Z,1008.7
2018-12-06T14:41:52.986Z,1008.7
2018-12-06T14:43:05.136Z,1008.7
2018-12-06T14:44:17.172Z,1008.7
2018-12-06T14:45:29.374Z,1008.7
2018-12-06T14:46:41.482Z,1008.7
2018-12-06T14:47:53.746Z,1008.7
2018-12-06T14:49:05.955Z,1008.7
2018-12-06T14:50:18.146Z,1008.7
2018-12-06T14:51:30.293Z,1008.6
2018-12-06T14:52:42.541Z,1008.7
2018-12-06T14:53:54.827Z,1008.7
2018-12-06T14:55:07.016Z,1008.8
2018-12-06T14:56:19.194Z,1008.8
2018-12-06T14:57:31.474Z,1008.8
2018-12-06T14:58:43.527Z,1008.8
2018-12-06T14:59:55.689Z,1008.8
2018-12-06T15:01:07.948Z,1008.8
2018-12-06T15:02:20.122Z,1008.7
2018-12-06T15:03:32.371Z,1008.8
2018-12-06T15:04:44.419Z,1008.8
2018-12-06T15:05:56.700Z,1008.8